Time;durP1;ratioP1;P1;durP2;ratioP2;P2;SDS_P1;SDS_P2;PMS_P1;PMS_P2;Temp;Humidity;BMP_temperature;BMP_pressure;BME280_temperature;BME280_humidity;BME280_pressure;Samples;Min_cycle;Max_cycle;Signal;HPM_P1;HPM_P2
2024/04/25 00:01:11;;;;;;;0.30;0.22;;;;;;;;;;5405056;26;20047;-74
2024/04/25 00:03:42;;;;;;;1.52;0.28;;;;;;;;;;5375525;26;20036;-75
2024/04/25 00:06:13;;;;;;;2.45;0.30;;;;;;;;;;5405172;26;20344;-73
2024/04/25 00:08:43;;;;;;;0.47;0.30;;;;;;;;;;5405029;26;20027;-73
2024/04/25 00:11:17;;;;;;;0.47;0.30;;;;;;;;;;5404205;26;20362;-76
2024/04/25 00:13:49;;;;;;;1.65;0.35;;;;;;;;;;5405604;26;20020;-75
2024/04/25 00:16:20;;;;;;;0.98;0.47;;;;;;;;;;5404186;26;19996;-76
2024/04/25 00:18:51;;;;;;;0.77;0.40;;;;;;;;;;5404042;26;20032;-75
2024/04/25 00:21:20;;;;;;;4.85;0.60;;;;;;;;;;5405364;26;20024;-75
2024/04/25 00:23:51;;;;;;;0.65;0.55;;;;;;;;;;5403566;26;20024;-76
2024/04/25 00:26:22;;;;;;;0.43;0.40;;;;;;;;;;5404523;26;20031;-77
2024/04/25 00:28:55;;;;;;;4.10;0.70;;;;;;;;;;5404779;26;20027;-76
2024/04/25 00:31:29;;;;;;;1.00;0.57;;;;;;;;;;5405174;26;20498;-74
2024/04/25 00:34:00;;;;;;;0.35;0.30;;;;;;;;;;5405245;26;20032;-75
2024/04/25 00:36:31;;;;;;;3.70;0.43;;;;;;;;;;5404672;26;20047;-75
2024/04/25 00:39:03;;;;;;;1.23;0.50;;;;;;;;;;5404178;26;20035;-74
2024/04/25 00:41:33;;;;;;;0.30;0.30;;;;;;;;;;5408442;26;20369;-77
2024/04/25 00:44:03;;;;;;;0.17;0.17;;;;;;;;;;5406358;26;20012;-75
2024/04/25 00:46:33;;;;;;;1.08;0.32;;;;;;;;;;5408040;26;20020;-74
2024/04/25 00:49:05;;;;;;;2.20;0.60;;;;;;;;;;5408010;26;20032;-76
2024/04/25 00:51:37;;;;;;;0.90;0.50;;;;;;;;;;5407614;26;20028;-77
2024/04/25 00:54:09;;;;;;;0.30;0.30;;;;;;;;;;5407741;26;20023;-74
2024/04/25 00:56:41;;;;;;;0.50;0.25;;;;;;;;;;5408233;26;20006;-75
2024/04/25 00:59:15;;;;;;;4.65;0.60;;;;;;;;;;5408188;26;20698;-74
2024/04/25 01:01:47;;;;;;;3.47;0.50;;;;;;;;;;5407880;26;20369;-76
2024/04/25 01:04:25;;;;;;;2.03;0.60;;;;;;;;;;5407238;26;20020;-74
2024/04/25 01:06:58;;;;;;;0.90;0.55;;;;;;;;;;5408243;26;20024;-75
2024/04/25 01:09:30;;;;;;;3.15;0.57;;;;;;;;;;5408132;26;20047;-74
2024/04/25 01:12:02;;;;;;;1.23;0.55;;;;;;;;;;5407383;26;20028;-76
2024/04/25 01:14:34;;;;;;;1.25;0.35;;;;;;;;;;5408664;26;20027;-75
2024/04/25 01:17:04;;;;;;;1.40;0.43;;;;;;;;;;5407705;26;20106;-75
2024/04/25 01:19:35;;;;;;;3.38;0.40;;;;;;;;;;5407673;26;20032;-77
2024/04/25 01:22:09;;;;;;;3.67;0.50;;;;;;;;;;5407965;26;20039;-76
2024/04/25 01:24:39;;;;;;;0.85;0.68;;;;;;;;;;5405992;26;20020;-73
2024/04/25 01:27:09;;;;;;;4.40;0.80;;;;;;;;;;5407949;26;20462;-73
2024/04/25 01:29:41;;;;;;;2.90;0.70;;;;;;;;;;5407709;26;20027;-76
2024/04/25 01:32:13;;;;;;;1.13;0.50;;;;;;;;;;5408735;26;20024;-77
2024/04/25 01:34:45;;;;;;;2.45;0.40;;;;;;;;;;5408284;26;20074;-76
2024/04/25 01:37:15;;;;;;;2.67;0.40;;;;;;;;;;5405620;26;19995;-74
2024/04/25 01:39:46;;;;;;;5.20;0.60;;;;;;;;;;5405409;26;20020;-73
2024/04/25 01:42:17;;;;;;;4.43;0.70;;;;;;;;;;5407807;26;20031;-75
2024/04/25 01:44:47;;;;;;;1.20;0.22;;;;;;;;;;5407442;26;20023;-77
2024/04/25 01:47:17;;;;;;;3.10;0.43;;;;;;;;;;5407532;26;20023;-76
2024/04/25 01:49:48;;;;;;;0.68;0.32;;;;;;;;;;5407677;26;20466;-76
2024/04/25 01:52:19;;;;;;;3.35;0.43;;;;;;;;;;5406633;26;20023;-77
2024/04/25 01:54:50;;;;;;;2.40;0.45;;;;;;;;;;5406604;26;20020;-76
2024/04/25 01:57:20;;;;;;;1.98;0.40;;;;;;;;;;5406913;26;20478;-76
2024/04/25 01:59:50;;;;;;;0.52;0.30;;;;;;;;;;5406009;26;20470;-76
2024/04/25 02:02:20;;;;;;;2.35;0.60;;;;;;;;;;5407611;26;20458;-73
2024/04/25 02:04:52;;;;;;;1.40;0.40;;;;;;;;;;5407072;26;20028;-77
2024/04/25 02:07:22;;;;;;;1.88;0.30;;;;;;;;;;5404783;26;20478;-77
2024/04/25 02:09:54;;;;;;;3.45;0.60;;;;;;;;;;5406898;26;20036;-76
2024/04/25 02:12:24;;;;;;;1.08;0.40;;;;;;;;;;5407846;26;20031;-74
2024/04/25 02:14:56;;;;;;;0.73;0.32;;;;;;;;;;5407329;26;20023;-71
2024/04/25 02:17:27;;;;;;;1.60;0.50;;;;;;;;;;5405017;26;20024;-76
2024/04/25 02:19:58;;;;;;;2.28;0.82;;;;;;;;;;5405695;26;20008;-74
2024/04/25 02:25:20;;;;;;;3.42;0.30;;;;;;;;;;5406421;26;20035;-77
2024/04/25 02:27:51;;;;;;;0.88;0.38;;;;;;;;;;5407246;26;20024;-74
2024/04/25 02:30:21;;;;;;;4.03;0.40;;;;;;;;;;5407344;26;20019;-74
2024/04/25 02:32:51;;;;;;;3.60;0.50;;;;;;;;;;5404629;26;20037;-75
2024/04/25 02:35:25;;;;;;;2.08;0.40;;;;;;;;;;5406935;26;20020;-76
2024/04/25 02:37:56;;;;;;;1.00;0.38;;;;;;;;;;5405094;26;19995;-74
2024/04/25 02:40:27;;;;;;;3.00;0.50;;;;;;;;;;5406848;26;20038;-74
2024/04/25 02:42:57;;;;;;;0.80;0.43;;;;;;;;;;5406326;26;20027;-73
2024/04/25 02:45:27;;;;;;;3.78;0.60;;;;;;;;;;5406448;26;20031;-74
2024/04/25 02:47:59;;;;;;;1.75;0.40;;;;;;;;;;5406679;26;20024;-77
2024/04/25 02:50:30;;;;;;;2.85;0.65;;;;;;;;;;5406487;26;20023;-75
2024/04/25 02:53:00;;;;;;;3.75;0.50;;;;;;;;;;5406324;26;20019;-75
2024/04/25 02:55:32;;;;;;;6.45;0.60;;;;;;;;;;5406892;26;20497;-75
2024/04/25 02:58:03;;;;;;;4.00;0.90;;;;;;;;;;5407131;26;20031;-73
2024/04/25 03:00:33;;;;;;;2.20;0.70;;;;;;;;;;5406995;26;20032;-76
2024/04/25 03:03:04;;;;;;;5.35;0.60;;;;;;;;;;5405042;26;20481;-77
2024/04/25 03:05:39;;;;;;;3.45;0.50;;;;;;;;;;5406887;26;20537;-74
2024/04/25 03:08:10;;;;;;;;;;;;;;;;;;5406683;26;20024;-75
2024/04/25 03:10:41;;;;;;;1.08;0.50;;;;;;;;;;5406704;26;19953;-76
2024/04/25 03:13:12;;;;;;;1.38;0.45;;;;;;;;;;5406511;26;20062;-75
2024/04/25 03:15:43;;;;;;;0.65;0.43;;;;;;;;;;5405561;26;20039;-77
2024/04/25 03:18:15;;;;;;;1.05;0.28;;;;;;;;;;5406470;26;20019;-75
2024/04/25 03:20:46;;;;;;;2.30;0.22;;;;;;;;;;5405048;26;20023;-77
2024/04/25 03:23:16;;;;;;;4.13;0.50;;;;;;;;;;5406274;26;20028;-77
2024/04/25 03:25:46;;;;;;;2.05;0.50;;;;;;;;;;5407391;26;20023;-76
2024/04/25 03:28:19;;;;;;;0.28;0.25;;;;;;;;;;5404405;26;20486;-74
2024/04/25 03:30:49;;;;;;;6.47;0.60;;;;;;;;;;5406330;26;20474;-74
2024/04/25 03:33:20;;;;;;;1.98;0.35;;;;;;;;;;5406006;26;20027;-72
2024/04/25 03:35:51;;;;;;;2.20;0.60;;;;;;;;;;5406075;26;20027;-75
2024/04/25 03:38:22;;;;;;;4.63;0.70;;;;;;;;;;5405956;26;20019;-75
2024/04/25 03:40:53;;;;;;;1.42;0.60;;;;;;;;;;5406417;26;20380;-76
2024/04/25 03:43:24;;;;;;;3.50;0.60;;;;;;;;;;5406036;26;20486;-75
2024/04/25 03:45:55;;;;;;;0.63;0.40;;;;;;;;;;5406165;26;20035;-76
2024/04/25 03:48:24;;;;;;;3.03;0.60;;;;;;;;;;5405568;26;20024;-77
2024/04/25 03:50:56;;;;;;;4.88;0.60;;;;;;;;;;5405538;26;20039;-77
2024/04/25 03:53:26;;;;;;;2.00;0.22;;;;;;;;;;5405193;26;20027;-77
2024/04/25 03:55:59;;;;;;;0.60;0.25;;;;;;;;;;5405412;26;20039;-77
2024/04/25 03:58:29;;;;;;;9.13;0.70;;;;;;;;;;5403653;26;20039;-76
2024/04/25 04:01:01;;;;;;;5.68;0.40;;;;;;;;;;5406060;26;20354;-74
2024/04/25 04:03:31;;;;;;;1.77;0.47;;;;;;;;;;5405158;26;20020;-77
2024/04/25 04:06:03;;;;;;;3.03;0.43;;;;;;;;;;5403831;26;20465;-73
2024/04/25 04:08:33;;;;;;;2.42;0.60;;;;;;;;;;5404873;26;20055;-72
2024/04/25 04:11:05;;;;;;;1.85;0.57;;;;;;;;;;5405702;26;20371;-74
2024/04/25 04:13:35;;;;;;;0.35;0.35;;;;;;;;;;5406256;26;20019;-76
2024/04/25 04:16:10;;;;;;;4.10;0.73;;;;;;;;;;5408380;26;20370;-72
2024/04/25 04:18:41;;;;;;;8.90;0.50;;;;;;;;;;5408827;26;20361;-75
2024/04/25 04:21:12;;;;;;;4.50;0.60;;;;;;;;;;5408645;26;20047;-77
2024/04/25 04:23:43;;;;;;;5.88;0.60;;;;;;;;;;5409169;26;20469;-75
2024/04/25 04:26:14;;;;;;;3.85;0.75;;;;;;;;;;5409047;26;20020;-74
2024/04/25 04:28:44;;;;;;;3.88;1.30;;;;;;;;;;5408635;26;20728;-76
2024/04/25 04:31:15;;;;;;;4.25;0.57;;;;;;;;;;5408490;26;20043;-75
2024/04/25 04:33:46;;;;;;;2.58;0.70;;;;;;;;;;5408373;26;20023;-76
2024/04/25 04:36:16;;;;;;;1.30;0.50;;;;;;;;;;5409298;26;20027;-76
2024/04/25 04:38:46;;;;;;;2.35;0.70;;;;;;;;;;5408399;26;20024;-76
2024/04/25 04:41:17;;;;;;;2.00;0.70;;;;;;;;;;5408759;26;20463;-75
2024/04/25 04:43:50;;;;;;;0.93;0.45;;;;;;;;;;5408432;26;20019;-75
2024/04/25 04:46:21;;;;;;;1.92;0.60;;;;;;;;;;5408996;26;20054;-74
2024/04/25 04:48:51;;;;;;;5.78;0.82;;;;;;;;;;5408613;26;20024;-76
2024/04/25 04:51:24;;;;;;;3.63;0.60;;;;;;;;;;5407826;26;20023;-75
2024/04/25 04:53:55;;;;;;;5.68;0.80;;;;;;;;;;5408062;26;20020;-72
2024/04/25 04:56:25;;;;;;;1.45;0.55;;;;;;;;;;5408513;26;20020;-73
2024/04/25 04:58:56;;;;;;;2.13;0.60;;;;;;;;;;5408526;26;20328;-73
2024/04/25 05:01:26;;;;;;;2.78;0.75;;;;;;;;;;5408000;26;20367;-75
2024/04/25 05:03:58;;;;;;;4.30;0.55;;;;;;;;;;5408310;26;20027;-74
2024/04/25 05:06:28;;;;;;;2.10;0.43;;;;;;;;;;5409044;26;20455;-72
2024/04/25 05:08:59;;;;;;;2.80;0.65;;;;;;;;;;5409142;26;20039;-73
2024/04/25 05:11:30;;;;;;;7.15;0.77;;;;;;;;;;5408496;26;20028;-77
2024/04/25 05:14:02;;;;;;;1.95;0.40;;;;;;;;;;5407886;26;20024;-76
2024/04/25 05:16:33;;;;;;;1.30;0.50;;;;;;;;;;5406885;26;20020;-73
2024/04/25 05:19:03;;;;;;;3.10;0.50;;;;;;;;;;5407871;26;20023;-74
2024/04/25 05:21:33;;;;;;;3.45;0.70;;;;;;;;;;5407828;26;20023;-75
2024/04/25 05:24:05;;;;;;;3.70;0.60;;;;;;;;;;5407606;26;20028;-77
2024/04/25 05:26:36;;;;;;;3.65;0.50;;;;;;;;;;5407581;26;20039;-76
2024/04/25 05:29:06;;;;;;;3.22;0.52;;;;;;;;;;5407699;26;20020;-74
2024/04/25 05:31:37;;;;;;;6.13;0.70;;;;;;;;;;5407766;26;20032;-71
2024/04/25 05:34:07;;;;;;;2.78;0.65;;;;;;;;;;5408352;26;20043;-74
2024/04/25 05:36:38;;;;;;;3.85;0.70;;;;;;;;;;5407338;26;20482;-76
2024/04/25 05:39:09;;;;;;;2.78;0.50;;;;;;;;;;5407845;26;20027;-73
2024/04/25 05:41:39;;;;;;;6.97;1.52;;;;;;;;;;5406361;26;20035;-72
2024/04/25 05:44:10;;;;;;;3.92;0.68;;;;;;;;;;5407698;26;20020;-76
2024/04/25 05:46:41;;;;;;;2.67;0.68;;;;;;;;;;5407345;26;20024;-75
2024/04/25 05:49:11;;;;;;;4.28;0.75;;;;;;;;;;5408426;26;20023;-76
2024/04/25 05:51:41;;;;;;;5.13;0.60;;;;;;;;;;5408418;26;20032;-73
2024/04/25 05:54:11;;;;;;;5.13;0.70;;;;;;;;;;5407921;26;20023;-74
2024/04/25 05:56:42;;;;;;;4.88;0.50;;;;;;;;;;5407194;26;20482;-74
2024/04/25 05:59:12;;;;;;;5.63;0.55;;;;;;;;;;5407238;26;20462;-72
2024/04/25 06:01:43;;;;;;;2.53;0.40;;;;;;;;;;5407543;26;20019;-74
2024/04/25 06:04:13;;;;;;;3.42;0.80;;;;;;;;;;5407050;26;20658;-75
2024/04/25 06:06:45;;;;;;;2.05;0.73;;;;;;;;;;5406826;26;20031;-76
2024/04/25 06:09:16;;;;;;;4.57;0.65;;;;;;;;;;5408309;26;20043;-73
2024/04/25 06:11:47;;;;;;;3.58;0.68;;;;;;;;;;5407113;26;20473;-75
2024/04/25 06:14:22;;;;;;;8.60;0.57;;;;;;;;;;5405267;26;20513;-76
2024/04/25 06:16:52;;;;;;;1.60;0.80;;;;;;;;;;5406487;26;20028;-73
2024/04/25 06:19:23;;;;;;;7.03;0.82;;;;;;;;;;5407054;26;20024;-72
2024/04/25 06:21:55;;;;;;;3.03;0.55;;;;;;;;;;5406999;26;20463;-77
2024/04/25 06:24:25;;;;;;;3.90;0.77;;;;;;;;;;5407131;26;20027;-72
2024/04/25 06:26:55;;;;;;;2.65;0.77;;;;;;;;;;5406986;26;20031;-75
2024/04/25 06:29:26;;;;;;;0.95;0.55;;;;;;;;;;5405948;26;20047;-77
2024/04/25 06:31:56;;;;;;;2.10;0.70;;;;;;;;;;5407057;26;20027;-76
2024/04/25 06:34:30;;;;;;;7.03;0.65;;;;;;;;;;5407363;26;20024;-75
2024/04/25 06:37:02;;;;;;;6.25;0.88;;;;;;;;;;5407102;26;20027;-73
2024/04/25 06:39:32;;;;;;;1.00;0.47;;;;;;;;;;5406835;26;20381;-74
2024/04/25 06:42:04;;;;;;;3.45;0.80;;;;;;;;;;5405655;26;20025;-75
2024/04/25 06:44:35;;;;;;;3.00;0.55;;;;;;;;;;5406681;26;20032;-74
2024/04/25 06:47:15;;;;;;;4.82;0.88;;;;;;;;;;5407074;26;20028;-72
2024/04/25 06:49:45;;;;;;;5.43;0.70;;;;;;;;;;5406416;26;20025;-75
2024/04/25 06:52:16;;;;;;;1.25;0.47;;;;;;;;;;5405691;26;20035;-74
2024/04/25 06:54:47;;;;;;;1.50;0.60;;;;;;;;;;5404627;26;20020;-74
2024/04/25 06:57:18;;;;;;;4.00;0.70;;;;;;;;;;5406325;26;20627;-77
2024/04/25 06:59:50;;;;;;;9.43;0.90;;;;;;;;;;5406249;26;21233;-74
2024/04/25 07:02:21;;;;;;;5.35;0.80;;;;;;;;;;5405934;26;20101;-74
2024/04/25 07:04:52;;;;;;;3.20;1.08;;;;;;;;;;5406801;26;20023;-74
2024/04/25 07:07:26;;;;;;;0.85;0.40;;;;;;;;;;5406232;26;20027;-73
2024/04/25 07:09:56;;;;;;;5.22;0.45;;;;;;;;;;5406357;26;20019;-75
2024/04/25 07:12:30;;;;;;;1.17;0.57;;;;;;;;;;5406386;26;20019;-76
2024/04/25 07:15:05;;;;;;;4.43;0.90;;;;;;;;;;5406543;26;20031;-76
2024/04/25 07:17:36;;;;;;;5.53;0.85;;;;;;;;;;5406575;26;20023;-76
2024/04/25 07:20:08;;;;;;;4.30;0.90;;;;;;;;;;5406498;26;20031;-74
2024/04/25 07:22:39;;;;;;;4.40;0.70;;;;;;;;;;5407525;26;20517;-73
2024/04/25 07:25:12;;;;;;;5.25;0.63;;;;;;;;;;5406339;26;20023;-74
2024/04/25 07:27:42;;;;;;;3.83;1.05;;;;;;;;;;5405669;26;20034;-76
2024/04/25 07:30:12;;;;;;;1.50;0.55;;;;;;;;;;5405705;26;20005;-77
2024/04/25 07:32:43;;;;;;;5.18;0.75;;;;;;;;;;5406387;26;20414;-76
2024/04/25 07:35:14;;;;;;;3.65;0.60;;;;;;;;;;5405923;26;20023;-75
2024/04/25 07:37:45;;;;;;;3.92;0.70;;;;;;;;;;5406126;26;20027;-73
2024/04/25 07:40:15;;;;;;;11.85;0.85;;;;;;;;;;5407243;26;20482;-75
2024/04/25 07:42:45;;;;;;;1.13;0.47;;;;;;;;;;5403626;26;20827;-74
2024/04/25 07:45:16;;;;;;;6.95;0.85;;;;;;;;;;5405783;26;20032;-75
2024/04/25 07:47:47;;;;;;;3.70;0.68;;;;;;;;;;5405853;26;20027;-75
2024/04/25 07:50:19;;;;;;;7.93;0.70;;;;;;;;;;5405521;26;20028;-73
2024/04/25 07:52:50;;;;;;;4.65;0.57;;;;;;;;;;5405424;26;20023;-74
2024/04/25 07:55:20;;;;;;;7.60;0.80;;;;;;;;;;5405831;26;20028;-74
2024/04/25 07:57:50;;;;;;;8.48;1.23;;;;;;;;;;5405515;26;20047;-74
2024/04/25 08:00:21;;;;;;;5.35;1.00;;;;;;;;;;5405973;26;20347;-73
2024/04/25 08:02:54;;;;;;;3.90;0.93;;;;;;;;;;5405722;26;20027;-75
2024/04/25 08:05:25;;;;;;;1.58;1.10;;;;;;;;;;5405478;26;20031;-76
2024/04/25 08:07:55;;;;;;;5.07;0.70;;;;;;;;;;5403212;26;20039;-76
2024/04/25 08:10:27;;;;;;;3.97;0.88;;;;;;;;;;5403582;26;20482;-77
2024/04/25 08:12:58;;;;;;;6.45;1.05;;;;;;;;;;5404281;26;20031;-74
2024/04/25 08:15:28;;;;;;;4.90;0.60;;;;;;;;;;5405102;26;20028;-74
2024/04/25 08:17:59;;;;;;;5.43;1.00;;;;;;;;;;5404740;26;20040;-75
2024/04/25 08:20:31;;;;;;;7.97;0.80;;;;;;;;;;5405180;26;20023;-77
2024/04/25 08:23:02;;;;;;;4.38;0.65;;;;;;;;;;5405021;26;20031;-73
2024/04/25 08:25:32;;;;;;;1.27;0.50;;;;;;;;;;5405188;26;20024;-75
2024/04/25 08:28:02;;;;;;;2.53;0.73;;;;;;;;;;5405286;26;20039;-75
2024/04/25 08:30:33;;;;;;;3.78;0.98;;;;;;;;;;5404645;26;20043;-74
2024/04/25 08:33:04;;;;;;;5.28;1.02;;;;;;;;;;5404754;26;20754;-75
2024/04/25 08:35:34;;;;;;;4.63;0.65;;;;;;;;;;5404478;26;20043;-77
2024/04/25 08:38:05;;;;;;;5.40;0.50;;;;;;;;;;5405500;26;20032;-76
2024/04/25 08:40:36;;;;;;;5.90;0.93;;;;;;;;;;5404697;26;20020;-74
2024/04/25 08:43:07;;;;;;;5.93;0.65;;;;;;;;;;5405258;26;20032;-77
2024/04/25 08:45:37;;;;;;;8.68;1.00;;;;;;;;;;5405001;26;20366;-77
2024/04/25 08:48:11;;;;;;;4.22;0.80;;;;;;;;;;5403799;26;20023;-76
2024/04/25 08:50:42;;;;;;;3.22;0.70;;;;;;;;;;5404137;26;20024;-77
2024/04/25 08:53:18;;;;;;;2.55;0.95;;;;;;;;;;5404434;26;20024;-73
2024/04/25 08:55:51;;;;;;;4.80;0.70;;;;;;;;;;5404682;26;20023;-77
2024/04/25 08:58:21;;;;;;;2.55;0.80;;;;;;;;;;5404637;26;20028;-73
2024/04/25 09:00:54;;;;;;;2.28;0.60;;;;;;;;;;5375974;26;20023;-76
2024/04/25 09:03:28;;;;;;;2.00;0.70;;;;;;;;;;5408391;26;20019;-76
2024/04/25 09:06:01;;;;;;;8.45;0.60;;;;;;;;;;5408784;26;20026;-74
2024/04/25 09:08:33;;;;;;;1.50;0.68;;;;;;;;;;5408042;26;20039;-76
2024/04/25 09:11:04;;;;;;;7.60;0.98;;;;;;;;;;5408517;26;20023;-75
2024/04/25 09:13:35;;;;;;;2.22;0.90;;;;;;;;;;5408477;26;20023;-74
2024/04/25 09:16:06;;;;;;;5.70;1.13;;;;;;;;;;5408359;26;20745;-76
2024/04/25 09:18:38;;;;;;;5.18;0.95;;;;;;;;;;5407768;26;20035;-75
2024/04/25 09:21:10;;;;;;;6.40;0.63;;;;;;;;;;5407690;26;20478;-73
2024/04/25 09:23:42;;;;;;;4.00;0.95;;;;;;;;;;5405092;26;20482;-74
2024/04/25 09:26:13;;;;;;;4.18;0.73;;;;;;;;;;5407922;26;20355;-78
2024/04/25 09:28:46;;;;;;;4.47;0.77;;;;;;;;;;5407997;26;20031;-77
2024/04/25 09:31:17;;;;;;;1.45;0.60;;;;;;;;;;5408719;26;20024;-76
2024/04/25 09:33:47;;;;;;;1.20;0.60;;;;;;;;;;5408251;26;20032;-77
2024/04/25 09:36:18;;;;;;;6.10;0.68;;;;;;;;;;5407644;26;20042;-76
2024/04/25 09:38:50;;;;;;;6.90;0.88;;;;;;;;;;5407604;26;20019;-78
2024/04/25 09:41:22;;;;;;;7.53;1.80;;;;;;;;;;5407599;26;20111;-75
2024/04/25 09:43:57;;;;;;;3.60;0.85;;;;;;;;;;5407421;26;20043;-75
2024/04/25 09:46:56;;;;;;;10.02;1.10;;;;;;;;;;5407427;26;20023;-75
2024/04/25 09:49:35;;;;;;;3.88;0.80;;;;;;;;;;5404987;26;20032;-75
2024/04/25 09:52:16;;;;;;;10.30;1.02;;;;;;;;;;5405986;26;19995;-76
2024/04/25 09:54:48;;;;;;;4.03;1.00;;;;;;;;;;5406935;26;20028;-77
2024/04/25 09:57:24;;;;;;;7.43;1.10;;;;;;;;;;5407819;26;20023;-78
2024/04/25 10:00:03;;;;;;;1.50;0.60;;;;;;;;;;5408717;26;20514;-77
2024/04/25 10:02:36;;;;;;;5.88;0.82;;;;;;;;;;5409289;26;20363;-74
2024/04/25 10:05:08;;;;;;;13.65;1.35;;;;;;;;;;5408185;26;20493;-74
2024/04/25 10:07:40;;;;;;;4.97;1.25;;;;;;;;;;5407136;26;20019;-74
2024/04/25 10:10:11;;;;;;;7.95;3.00;;;;;;;;;;5406857;26;20019;-75
2024/04/25 10:12:53;;;;;;;5.60;1.45;;;;;;;;;;5407345;26;20031;-78
2024/04/25 10:15:32;;;;;;;1.30;0.70;;;;;;;;;;5407172;26;20035;-77
2024/04/25 10:18:07;;;;;;;2.75;0.90;;;;;;;;;;5407529;26;20028;-74
2024/04/25 10:20:38;;;;;;;1.48;0.63;;;;;;;;;;5407565;26;20027;-74
2024/04/25 10:23:11;;;;;;;4.30;0.93;;;;;;;;;;5407526;26;20027;-80
2024/04/25 10:25:55;;;;;;;1.90;0.63;;;;;;;;;;5407391;26;20019;-74
2024/04/25 10:28:28;;;;;;;6.88;0.95;;;;;;;;;;5406442;26;20035;-77
2024/04/25 10:30:59;;;;;;;8.63;1.42;;;;;;;;;;5404232;26;19995;-76
2024/04/25 10:33:30;;;;;;;4.25;0.98;;;;;;;;;;5406583;26;20647;-73
2024/04/25 10:36:06;;;;;;;2.35;0.45;;;;;;;;;;5407070;26;20038;-77
2024/04/25 10:38:36;;;;;;;5.00;1.00;;;;;;;;;;5406696;26;20988;-73
2024/04/25 10:41:14;;;;;;;2.55;0.88;;;;;;;;;;5406717;26;20031;-76
2024/04/25 10:43:46;;;;;;;5.47;1.02;;;;;;;;;;5404521;26;20032;-76
2024/04/25 10:46:16;;;;;;;6.20;1.98;;;;;;;;;;5406654;26;20035;-75
2024/04/25 10:48:47;;;;;;;4.60;0.98;;;;;;;;;;5406563;26;20027;-77
2024/04/25 10:51:17;;;;;;;2.80;0.68;;;;;;;;;;5406683;26;20027;-77
2024/04/25 10:53:48;;;;;;;5.40;1.13;;;;;;;;;;5407212;26;20028;-76
2024/04/25 10:56:22;;;;;;;13.75;1.00;;;;;;;;;;5394938;26;20051;-76
2024/04/25 10:58:57;;;;;;;1.88;0.60;;;;;;;;;;5369986;26;20028;-76
2024/04/25 11:01:29;;;;;;;2.13;0.75;;;;;;;;;;5385559;26;20035;-77
2024/04/25 11:04:05;;;;;;;10.43;0.80;;;;;;;;;;5387959;26;20036;-75
2024/04/25 11:06:36;;;;;;;6.85;0.70;;;;;;;;;;5373071;26;20000;-78
2024/04/25 11:09:13;;;;;;;1.83;0.65;;;;;;;;;;5369647;26;20024;-77
2024/04/25 11:11:44;;;;;;;1.25;0.45;;;;;;;;;;5370748;26;20365;-75
2024/04/25 11:14:15;;;;;;;1.20;0.65;;;;;;;;;;5370709;26;20352;-76
2024/04/25 11:16:48;;;;;;;3.70;0.70;;;;;;;;;;5370194;26;20094;-74
2024/04/25 11:19:20;;;;;;;4.68;0.50;;;;;;;;;;5371923;26;20024;-75
2024/04/25 11:21:54;;;;;;;;;;;;;;;;;;5369679;26;20007;-74
2024/04/25 11:24:25;;;;;;;5.07;1.42;;;;;;;;;;5370283;26;19957;-76
2024/04/25 11:27:01;;;;;;;8.75;1.00;;;;;;;;;;5371136;26;20032;-75
2024/04/25 11:29:32;;;;;;;1.73;0.60;;;;;;;;;;5370558;26;20035;-76
2024/04/25 11:32:03;;;;;;;2.65;0.70;;;;;;;;;;5370672;26;20032;-75
2024/04/25 11:34:35;;;;;;;6.82;0.70;;;;;;;;;;5370536;26;20024;-77
2024/04/25 11:37:07;;;;;;;3.05;0.70;;;;;;;;;;5370833;26;20028;-75
2024/04/25 11:39:37;;;;;;;2.95;0.60;;;;;;;;;;5368639;26;20481;-78
2024/04/25 11:42:10;;;;;;;4.50;0.82;;;;;;;;;;5370998;26;20082;-75
2024/04/25 11:44:40;;;;;;;2.53;0.90;;;;;;;;;;5371927;26;20024;-73
2024/04/25 11:47:13;;;;;;;1.85;0.88;;;;;;;;;;5371174;26;20020;-73
2024/04/25 11:49:44;;;;;;;2.55;0.80;;;;;;;;;;5370387;26;20031;-75
2024/04/25 11:52:14;;;;;;;1.27;0.60;;;;;;;;;;5369317;26;20034;-75
2024/04/25 11:54:45;;;;;;;9.38;0.70;;;;;;;;;;5368632;26;20040;-77
2024/04/25 11:57:17;;;;;;;5.07;1.23;;;;;;;;;;5369701;26;20020;-77
2024/04/25 11:59:47;;;;;;;5.85;0.68;;;;;;;;;;5369983;26;20000;-74
2024/04/25 12:02:17;;;;;;;3.35;0.60;;;;;;;;;;5370002;26;20033;-75
2024/04/25 12:04:48;;;;;;;3.47;0.90;;;;;;;;;;5369836;26;20139;-76
2024/04/25 12:07:19;;;;;;;5.15;0.77;;;;;;;;;;5369902;26;20056;-75
2024/04/25 12:09:49;;;;;;;8.27;1.00;;;;;;;;;;5368902;26;20408;-74
2024/04/25 12:12:20;;;;;;;3.65;0.75;;;;;;;;;;5370202;26;20021;-75
2024/04/25 12:15:11;;;;;;;3.95;0.95;;;;;;;;;;5370713;26;20028;-73
2024/04/25 12:17:42;;;;;;;1.25;0.70;;;;;;;;;;5370080;26;20067;-76
2024/04/25 12:20:12;;;;;;;3.58;0.50;;;;;;;;;;5369810;26;20020;-73
2024/04/25 12:22:44;;;;;;;7.72;0.73;;;;;;;;;;5369833;26;20036;-75
2024/04/25 12:25:14;;;;;;;10.63;1.00;;;;;;;;;;5370112;26;20028;-77
2024/04/25 12:27:45;;;;;;;0.82;0.32;;;;;;;;;;5369488;26;20804;-80
2024/04/25 12:30:15;;;;;;;5.60;0.55;;;;;;;;;;5369962;26;20024;-75
2024/04/25 12:32:46;;;;;;;5.80;0.73;;;;;;;;;;5371899;26;20036;-77
2024/04/25 12:35:16;;;;;;;3.63;0.90;;;;;;;;;;5369821;26;20029;-75
2024/04/25 12:37:47;;;;;;;5.75;0.75;;;;;;;;;;5373611;26;20021;-76
2024/04/25 12:40:18;;;;;;;5.32;0.63;;;;;;;;;;5372960;26;20067;-78
2024/04/25 12:42:48;;;;;;;4.22;0.93;;;;;;;;;;5372588;26;20020;-76
2024/04/25 12:45:22;;;;;;;7.53;0.80;;;;;;;;;;5370995;26;20026;-77
2024/04/25 12:47:53;;;;;;;4.90;1.23;;;;;;;;;;5372506;26;20040;-78
2024/04/25 12:50:25;;;;;;;6.03;0.65;;;;;;;;;;5373031;26;20032;-78
2024/04/25 12:52:56;;;;;;;4.70;0.90;;;;;;;;;;5372913;26;20032;-74
2024/04/25 12:55:28;;;;;;;7.35;0.90;;;;;;;;;;5373130;26;20366;-73
2024/04/25 12:57:59;;;;;;;6.20;0.85;;;;;;;;;;5373210;26;20445;-76
2024/04/25 13:00:29;;;;;;;2.60;0.57;;;;;;;;;;5371652;26;20000;-74
2024/04/25 13:02:59;;;;;;;4.78;0.68;;;;;;;;;;5372076;26;20027;-75
2024/04/25 13:05:31;;;;;;;8.73;1.20;;;;;;;;;;5373448;26;20020;-76
2024/04/25 13:08:02;;;;;;;6.60;0.75;;;;;;;;;;5373243;26;20028;-75
2024/04/25 13:10:33;;;;;;;5.25;0.60;;;;;;;;;;5373407;26;20044;-78
2024/04/25 13:13:04;;;;;;;9.80;0.80;;;;;;;;;;5373443;26;20439;-74
2024/04/25 13:15:35;;;;;;;2.95;0.57;;;;;;;;;;5372298;26;20056;-74
2024/04/25 13:18:06;;;;;;;7.00;0.80;;;;;;;;;;5372793;26;20789;-75
2024/04/25 13:20:38;;;;;;;3.95;0.75;;;;;;;;;;5371616;26;20345;-75
2024/04/25 13:23:08;;;;;;;8.27;0.70;;;;;;;;;;5373060;26;20028;-74
2024/04/25 13:25:39;;;;;;;4.70;0.60;;;;;;;;;;5372646;26;20031;-73
2024/04/25 13:28:09;;;;;;;7.20;0.73;;;;;;;;;;5371592;26;20024;-76
2024/04/25 13:30:41;;;;;;;5.85;0.77;;;;;;;;;;5373433;26;20648;-74
2024/04/25 13:33:11;;;;;;;3.60;0.40;;;;;;;;;;5371978;26;20025;-75
2024/04/25 13:35:45;;;;;;;5.18;0.80;;;;;;;;;;5370546;26;19996;-76
2024/04/25 13:38:15;;;;;;;7.28;0.85;;;;;;;;;;5372186;26;20032;-76
2024/04/25 13:40:46;;;;;;;4.20;0.77;;;;;;;;;;5372588;26;20055;-75
2024/04/25 13:43:16;;;;;;;6.75;1.25;;;;;;;;;;5369774;26;20048;-74
2024/04/25 13:45:47;;;;;;;7.25;0.70;;;;;;;;;;5371879;26;20036;-75
2024/04/25 13:48:18;;;;;;;5.85;0.73;;;;;;;;;;5372385;26;20029;-76
2024/04/25 13:50:49;;;;;;;5.53;0.98;;;;;;;;;;5372211;26;20023;-75
2024/04/25 13:53:19;;;;;;;4.32;0.60;;;;;;;;;;5371871;26;20032;-76
2024/04/25 13:55:50;;;;;;;6.35;0.75;;;;;;;;;;5371601;26;20375;-76
2024/04/25 13:58:21;;;;;;;3.40;0.98;;;;;;;;;;5372468;26;20024;-77
2024/04/25 14:00:53;;;;;;;3.50;1.20;;;;;;;;;;5372176;26;20199;-74
2024/04/25 14:03:23;;;;;;;3.00;0.68;;;;;;;;;;5371265;26;20024;-79
2024/04/25 14:05:54;;;;;;;5.68;0.70;;;;;;;;;;5372092;26;20008;-76
2024/04/25 14:08:24;;;;;;;7.47;0.73;;;;;;;;;;5371673;26;20028;-74
2024/04/25 14:10:56;;;;;;;2.83;0.82;;;;;;;;;;5371790;26;20024;-75
2024/04/25 14:13:26;;;;;;;3.28;0.90;;;;;;;;;;5370337;26;20471;-77
2024/04/25 14:15:57;;;;;;;6.05;0.82;;;;;;;;;;5372041;26;20020;-77
2024/04/25 14:18:27;;;;;;;3.40;0.65;;;;;;;;;;5371678;26;20020;-72
2024/04/25 14:20:58;;;;;;;8.25;0.75;;;;;;;;;;5369734;26;20341;-75
2024/04/25 14:23:28;;;;;;;4.82;0.70;;;;;;;;;;5371459;26;20020;-78
2024/04/25 14:28:52;;;;;;;3.35;0.68;;;;;;;;;;5371545;26;20035;-79
2024/04/25 14:31:23;;;;;;;;;;;;;;;;;;5372557;26;20029;-75
2024/04/25 14:33:54;;;;;;;2.10;0.57;;;;;;;;;;5371595;26;19977;-80
2024/04/25 14:36:25;;;;;;;4.22;0.80;;;;;;;;;;5371184;26;20028;-80
2024/04/25 14:38:55;;;;;;;4.80;0.80;;;;;;;;;;5369930;26;20028;-76
2024/04/25 14:41:26;;;;;;;3.97;1.27;;;;;;;;;;5371790;26;20028;-76
2024/04/25 14:43:57;;;;;;;4.32;0.73;;;;;;;;;;5371445;26;20656;-76
2024/04/25 14:46:36;;;;;;;2.70;0.55;;;;;;;;;;5344206;26;20039;-76
2024/04/25 14:49:06;;;;;;;2.72;0.52;;;;;;;;;;5372002;26;20055;-74
2024/04/25 14:51:37;;;;;;;8.80;1.10;;;;;;;;;;5372235;26;20324;-77
2024/04/25 14:54:07;;;;;;;4.68;0.60;;;;;;;;;;5371368;26;20024;-76
2024/04/25 14:56:38;;;;;;;5.07;1.88;;;;;;;;;;5373289;26;20020;-74
2024/04/25 14:59:08;;;;;;;7.82;1.13;;;;;;;;;;5369225;26;20047;-76
2024/04/25 15:01:42;;;;;;;2.92;0.70;;;;;;;;;;5371266;26;20020;-75
2024/04/25 15:04:13;;;;;;;5.00;0.70;;;;;;;;;;5370641;26;20506;-73
2024/04/25 15:06:49;;;;;;;8.52;1.50;;;;;;;;;;5371753;26;20021;-75
2024/04/25 15:09:20;;;;;;;7.75;1.27;;;;;;;;;;5371916;26;20000;-74
2024/04/25 15:12:05;;;;;;;2.08;0.63;;;;;;;;;;5371554;26;20036;-74
2024/04/25 15:14:37;;;;;;;3.35;0.60;;;;;;;;;;5341493;26;20028;-76